Raleigh, WV (25911)

4:45 PM EDT on June 03, 2015 (GMT -0400)
Southeast Beckley | | Change Station
CLOSE
Current Station
Personal Weather Station
Location: Beckley, WV
Elevation: 2365 ft
Nearby Weather Stations

Elev 2365 ft 37.76 °N, 81.16 °W | Updated 25 seconds ago

Overcast
Overcast
66.2 °F
Feels Like 66.2 °F
N
0.0
Wind Variable Wind from ENE
Gusts 3.0 mph

Today
High -- | Low -- °F
--% Chance of Precip.
Yesterday
High -- | Low -- °F
Precip. -- in
6:03 AM 8:42 PM
Full, 98% visible
Pressure 30.09 in
Visibility 10.0 miles
Clouds Overcast 1600 ft
Dew Point 58 °F
Humidity 76%
Rainfall 0.00 in
Snow Depth Not available.
UV 2 out of 12
Pollen 2.40 out of 12
Air Quality Not available.
Flu Activity Sporadic
SPECI KBKW 032035Z AUTO 14007KT 10SM OVC016 17/13 A3009 RMK AO2 T01720128

More Conditions Fewer Conditions

Pressure 30.09 in
Visibility 10.0 miles
Clouds Overcast 1600 ft
Dew Point 58 °F
Humidity 76%
Rainfall 0.00 in
Snow Depth Not available.
UV 2 out of 12
Pollen 2.40 out of 12
Air Quality Not available.
Flu Activity Sporadic
SPECI KBKW 032035Z AUTO 14007KT 10SM OVC016 17/13 A3009 RMK AO2 T01720128

More Conditions Fewer Conditions

10-Day Weather Forecast

×

Almanac

Astronomy

Jun. 03, 2015 Rise Set
Actual Time
Civil Twilight
Nautical Twilight
Astronomical Twilight
Moon
Length of Visible Light
Length of Day
Tomorrow will be .
, % of the Moon is Illuminated

Today's Extremes

State Highs State Lows

Community

WunderPhotos

Upload Photos

1,826,279 photos uploaded!

WunderBlogs® & News

Nearby

Air Quality

  Air Quality AQ Index Pollutant
Not available.

Snow Depth

Station Depth Elevation

Earthquake Activity

City Distance Mag. Time & Date
Minimum magnitude displayed is 2.5.

Coastal Water Temperatures

Place Temperature

Stations

Nearby Weather Stations

Station Location Temp. Windchill Dew Point Humidity Wind Precip. Elev Updated Type